sensor_id;sensor_type;location;lat;lon;timestamp;pressure;altitude;pressure_sealevel;temperature;humidity
9774;BME280;4926;42.670;23.316;2022-07-29T00:02:12;94665.00;;;20.48;100.00
9774;BME280;4926;42.670;23.316;2022-07-29T00:04:40;94699.34;;;20.75;100.00
9774;BME280;4926;42.670;23.316;2022-07-29T00:07:09;94695.94;;;20.78;100.00
9774;BME280;4926;42.670;23.316;2022-07-29T00:09:36;94712.53;;;20.92;100.00
9774;BME280;4926;42.670;23.316;2022-07-29T00:12:05;94707.34;;;20.99;100.00
9774;BME280;4926;42.670;23.316;2022-07-29T00:14:32;94722.19;;;21.05;100.00
9774;BME280;4926;42.670;23.316;2022-07-29T00:17:02;94723.09;;;21.10;100.00
9774;BME280;4926;42.670;23.316;2022-07-29T00:19:28;94716.16;;;21.12;100.00
9774;BME280;4926;42.670;23.316;2022-07-29T00:21:56;94719.06;;;21.19;100.00
9774;BME280;4926;42.670;23.316;2022-07-29T00:24:25;94719.75;;;21.32;100.00
9774;BME280;4926;42.670;23.316;2022-07-29T00:26:55;94709.53;;;21.25;100.00
9774;BME280;4926;42.670;23.316;2022-07-29T00:29:21;94709.47;;;21.22;100.00
9774;BME280;4926;42.670;23.316;2022-07-29T00:31:48;94710.41;;;21.14;100.00
9774;BME280;4926;42.670;23.316;2022-07-29T00:34:15;94702.97;;;21.11;100.00
9774;BME280;4926;42.670;23.316;2022-07-29T00:36:57;94708.84;;;21.13;100.00
9774;BME280;4926;42.670;23.316;2022-07-29T00:39:27;94709.38;;;21.18;100.00
9774;BME280;4926;42.670;23.316;2022-07-29T00:41:54;94717.84;;;21.17;100.00
9774;BME280;4926;42.670;23.316;2022-07-29T00:44:20;94713.09;;;21.14;100.00
9774;BME280;4926;42.670;23.316;2022-07-29T00:46:47;94714.44;;;21.20;100.00
9774;BME280;4926;42.670;23.316;2022-07-29T00:49:17;94723.84;;;21.26;100.00
9774;BME280;4926;42.670;23.316;2022-07-29T00:51:44;94729.88;;;21.35;100.00
9774;BME280;4926;42.670;23.316;2022-07-29T00:54:12;94733.81;;;21.37;100.00
9774;BME280;4926;42.670;23.316;2022-07-29T00:56:39;94735.91;;;21.44;100.00
9774;BME280;4926;42.670;23.316;2022-07-29T00:59:07;94727.63;;;21.37;100.00
9774;BME280;4926;42.670;23.316;2022-07-29T01:01:37;94725.00;;;21.25;100.00
9774;BME280;4926;42.670;23.316;2022-07-29T01:04:05;94726.38;;;21.19;100.00
9774;BME280;4926;42.670;23.316;2022-07-29T01:06:33;94717.31;;;21.11;100.00
9774;BME280;4926;42.670;23.316;2022-07-29T01:09:01;94717.94;;;20.92;100.00
9774;BME280;4926;42.670;23.316;2022-07-29T01:11:36;94708.09;;;20.84;100.00
9774;BME280;4926;42.670;23.316;2022-07-29T01:14:06;94709.44;;;20.78;100.00
9774;BME280;4926;42.670;23.316;2022-07-29T01:16:38;94704.22;;;20.85;100.00
9774;BME280;4926;42.670;23.316;2022-07-29T01:19:16;94706.22;;;21.00;100.00
9774;BME280;4926;42.670;23.316;2022-07-29T01:21:51;94707.34;;;20.99;100.00
9774;BME280;4926;42.670;23.316;2022-07-29T01:24:44;94700.44;;;21.02;100.00
9774;BME280;4926;42.670;23.316;2022-07-29T01:27:36;94704.63;;;20.99;100.00
9774;BME280;4926;42.670;23.316;2022-07-29T01:30:06;94695.56;;;21.08;100.00
9774;BME280;4926;42.670;23.316;2022-07-29T01:32:38;94693.13;;;21.02;100.00
9774;BME280;4926;42.670;23.316;2022-07-29T01:35:10;94681.06;;;21.00;100.00
9774;BME280;4926;42.670;23.316;2022-07-29T01:37:45;94686.88;;;20.86;100.00
9774;BME280;4926;42.670;23.316;2022-07-29T01:40:20;94675.88;;;20.79;100.00
9774;BME280;4926;42.670;23.316;2022-07-29T01:42:50;94684.59;;;20.88;100.00
9774;BME280;4926;42.670;23.316;2022-07-29T01:45:23;94684.53;;;20.85;100.00
9774;BME280;4926;42.670;23.316;2022-07-29T01:47:56;94685.72;;;20.87;100.00
9774;BME280;4926;42.670;23.316;2022-07-29T01:50:30;94684.31;;;20.62;100.00
9774;BME280;4926;42.670;23.316;2022-07-29T01:53:00;94684.06;;;20.67;100.00
9774;BME280;4926;42.670;23.316;2022-07-29T01:55:31;94683.53;;;20.77;100.00
9774;BME280;4926;42.670;23.316;2022-07-29T01:57:59;94679.19;;;20.88;100.00
9774;BME280;4926;42.670;23.316;2022-07-29T02:00:31;94683.53;;;20.77;100.00
9774;BME280;4926;42.670;23.316;2022-07-29T02:02:59;94684.72;;;20.64;100.00
9774;BME280;4926;42.670;23.316;2022-07-29T02:05:28;94672.97;;;20.57;100.00
9774;BME280;4926;42.670;23.316;2022-07-29T02:08:02;94674.59;;;20.61;100.00
9774;BME280;4926;42.670;23.316;2022-07-29T02:10:31;94680.34;;;20.44;100.00
9774;BME280;4926;42.670;23.316;2022-07-29T02:12:59;94677.00;;;20.35;100.00
9774;BME280;4926;42.670;23.316;2022-07-29T02:15:33;94665.97;;;20.28;100.00
9774;BME280;4926;42.670;23.316;2022-07-29T02:18:02;94665.09;;;20.24;100.00
9774;BME280;4926;42.670;23.316;2022-07-29T02:20:35;94662.84;;;20.26;100.00
9774;BME280;4926;42.670;23.316;2022-07-29T02:23:03;94671.63;;;20.23;100.00
9774;BME280;4926;42.670;23.316;2022-07-29T02:25:33;94658.97;;;20.39;100.00
9774;BME280;4926;42.670;23.316;2022-07-29T02:28:02;94659.41;;;20.41;100.00
9774;BME280;4926;42.670;23.316;2022-07-29T02:30:36;94663.41;;;20.47;100.00
9774;BME280;4926;42.670;23.316;2022-07-29T02:33:06;94657.53;;;20.57;100.00
9774;BME280;4926;42.670;23.316;2022-07-29T02:35:34;94658.78;;;20.48;100.00
9774;BME280;4926;42.670;23.316;2022-07-29T02:38:02;94647.88;;;20.44;100.00
9774;BME280;4926;42.670;23.316;2022-07-29T02:40:48;94648.41;;;20.50;100.00
9774;BME280;4926;42.670;23.316;2022-07-29T02:43:20;94648.59;;;20.41;100.00
9774;BME280;4926;42.670;23.316;2022-07-29T02:45:51;94639.38;;;20.30;100.00
9774;BME280;4926;42.670;23.316;2022-07-29T02:48:23;94636.97;;;20.13;100.00
9774;BME280;4926;42.670;23.316;2022-07-29T02:51:05;94640.25;;;20.19;100.00
9774;BME280;4926;42.670;23.316;2022-07-29T02:53:34;94639.63;;;20.25;100.00
9774;BME280;4926;42.670;23.316;2022-07-29T02:56:11;94650.47;;;20.25;100.00
9774;BME280;4926;42.670;23.316;2022-07-29T02:58:42;94651.38;;;20.17;100.00
9774;BME280;4926;42.670;23.316;2022-07-29T03:01:16;94630.84;;;20.28;100.00
9774;BME280;4926;42.670;23.316;2022-07-29T03:03:48;94640.72;;;20.36;100.00
9774;BME280;4926;42.670;23.316;2022-07-29T03:06:17;94646.84;;;20.49;100.00
9774;BME280;4926;42.670;23.316;2022-07-29T03:08:49;94646.75;;;20.45;100.00
9774;BME280;4926;42.670;23.316;2022-07-29T03:11:17;94645.41;;;20.24;100.00
9774;BME280;4926;42.670;23.316;2022-07-29T03:13:45;94641.19;;;20.26;100.00
9774;BME280;4926;42.670;23.316;2022-07-29T03:16:12;94638.06;;;20.24;100.00
9774;BME280;4926;42.670;23.316;2022-07-29T03:18:41;94646.06;;;20.21;100.00
9774;BME280;4926;42.670;23.316;2022-07-29T03:21:08;94641.09;;;20.23;100.00
9774;BME280;4926;42.670;23.316;2022-07-29T03:23:35;94644.84;;;20.18;100.00
9774;BME280;4926;42.670;23.316;2022-07-29T03:26:02;94657.69;;;20.21;100.00
9774;BME280;4926;42.670;23.316;2022-07-29T03:28:31;94654.66;;;20.38;100.00
9774;BME280;4926;42.670;23.316;2022-07-29T03:30:57;94662.97;;;20.45;100.00
9774;BME280;4926;42.670;23.316;2022-07-29T03:33:24;94663.31;;;20.44;100.00
9774;BME280;4926;42.670;23.316;2022-07-29T03:35:55;94661.53;;;20.20;100.00
9774;BME280;4926;42.670;23.316;2022-07-29T03:38:25;94656.88;;;20.21;100.00
9774;BME280;4926;42.670;23.316;2022-07-29T03:40:57;94662.25;;;20.33;100.00
9774;BME280;4926;42.670;23.316;2022-07-29T03:43:28;94666.94;;;20.08;100.00
9774;BME280;4926;42.670;23.316;2022-07-29T03:45:57;94660.47;;;19.85;100.00
9774;BME280;4926;42.670;23.316;2022-07-29T03:48:26;94664.28;;;19.96;100.00
9774;BME280;4926;42.670;23.316;2022-07-29T03:50:56;94660.94;;;19.87;100.00
9774;BME280;4926;42.670;23.316;2022-07-29T03:53:23;94666.53;;;19.94;100.00
9774;BME280;4926;42.670;23.316;2022-07-29T03:55:53;94663.91;;;20.10;100.00
9774;BME280;4926;42.670;23.316;2022-07-29T03:58:24;94672.34;;;20.08;100.00
9774;BME280;4926;42.670;23.316;2022-07-29T04:00:53;94677.84;;;20.12;100.00
9774;BME280;4926;42.670;23.316;2022-07-29T04:03:23;94681.22;;;20.21;100.00
9774;BME280;4926;42.670;23.316;2022-07-29T04:06:05;94679.34;;;20.37;100.00
9774;BME280;4926;42.670;23.316;2022-07-29T04:08:32;94678.59;;;20.36;100.00
9774;BME280;4926;42.670;23.316;2022-07-29T04:10:59;94677.31;;;20.61;100.00
9774;BME280;4926;42.670;23.316;2022-07-29T04:13:26;94671.84;;;20.73;100.00
9774;BME280;4926;42.670;23.316;2022-07-29T04:15:53;94673.31;;;20.55;100.00
9774;BME280;4926;42.670;23.316;2022-07-29T04:18:20;94669.63;;;20.63;100.00
9774;BME280;4926;42.670;23.316;2022-07-29T04:20:46;94668.00;;;20.74;100.00
9774;BME280;4926;42.670;23.316;2022-07-29T04:23:17;94672.81;;;20.81;100.00
9774;BME280;4926;42.670;23.316;2022-07-29T04:25:55;94669.94;;;20.89;100.00
9774;BME280;4926;42.670;23.316;2022-07-29T04:28:25;94671.75;;;20.70;100.00
9774;BME280;4926;42.670;23.316;2022-07-29T04:30:52;94672.44;;;20.67;100.00
9774;BME280;4926;42.670;23.316;2022-07-29T04:33:21;94668.50;;;20.64;100.00
9774;BME280;4926;42.670;23.316;2022-07-29T04:35:48;94672.00;;;20.80;100.00
9774;BME280;4926;42.670;23.316;2022-07-29T04:38:18;94685.44;;;21.04;100.00
9774;BME280;4926;42.670;23.316;2022-07-29T04:40:45;94681.50;;;21.18;100.00
9774;BME280;4926;42.670;23.316;2022-07-29T04:43:12;94687.88;;;21.41;100.00
9774;BME280;4926;42.670;23.316;2022-07-29T04:45:38;94687.75;;;21.53;100.00
9774;BME280;4926;42.670;23.316;2022-07-29T04:48:06;94695.53;;;21.54;100.00
9774;BME280;4926;42.670;23.316;2022-07-29T04:50:34;94692.06;;;21.38;100.00
9774;BME280;4926;42.670;23.316;2022-07-29T04:53:05;94688.66;;;21.41;100.00
9774;BME280;4926;42.670;23.316;2022-07-29T04:55:34;94696.00;;;21.25;100.00
9774;BME280;4926;42.670;23.316;2022-07-29T04:58:01;94697.13;;;21.24;100.00
9774;BME280;4926;42.670;23.316;2022-07-29T05:00:28;94695.03;;;21.18;100.00
9774;BME280;4926;42.670;23.316;2022-07-29T05:02:56;94699.22;;;21.15;100.00
9774;BME280;4926;42.670;23.316;2022-07-29T05:05:22;94700.91;;;21.20;100.00
9774;BME280;4926;42.670;23.316;2022-07-29T05:07:49;94702.63;;;21.28;100.00
9774;BME280;4926;42.670;23.316;2022-07-29T05:10:16;94697.38;;;21.35;100.00
9774;BME280;4926;42.670;23.316;2022-07-29T05:12:47;94697.56;;;21.42;100.00
9774;BME280;4926;42.670;23.316;2022-07-29T05:15:14;94702.81;;;21.35;100.00
9774;BME280;4926;42.670;23.316;2022-07-29T05:17:43;94707.72;;;21.45;100.00
9774;BME280;4926;42.670;23.316;2022-07-29T05:20:10;94702.13;;;21.38;100.00
9774;BME280;4926;42.670;23.316;2022-07-29T05:22:37;94705.00;;;21.45;100.00
9774;BME280;4926;42.670;23.316;2022-07-29T05:25:09;94707.97;;;21.55;100.00
9774;BME280;4926;42.670;23.316;2022-07-29T05:27:36;94710.16;;;21.50;100.00
9774;BME280;4926;42.670;23.316;2022-07-29T05:30:05;94708.72;;;21.56;100.00
9774;BME280;4926;42.670;23.316;2022-07-29T05:32:32;94707.09;;;21.51;100.00
9774;BME280;4926;42.670;23.316;2022-07-29T05:34:59;94703.84;;;21.46;100.00
9774;BME280;4926;42.670;23.316;2022-07-29T05:37:26;94698.44;;;21.46;100.00
9774;BME280;4926;42.670;23.316;2022-07-29T05:39:53;94698.75;;;21.60;100.00
9774;BME280;4926;42.670;23.316;2022-07-29T05:42:19;94716.25;;;21.78;100.00
9774;BME280;4926;42.670;23.316;2022-07-29T05:44:46;94707.28;;;21.77;100.00
9774;BME280;4926;42.670;23.316;2022-07-29T05:47:15;94708.53;;;21.80;100.00
9774;BME280;4926;42.670;23.316;2022-07-29T05:49:42;94711.84;;;21.89;100.00
9774;BME280;4926;42.670;23.316;2022-07-29T05:52:09;94716.72;;;21.99;100.00
9774;BME280;4926;42.670;23.316;2022-07-29T05:54:36;94711.03;;;22.04;100.00
9774;BME280;4926;42.670;23.316;2022-07-29T05:57:03;94713.09;;;22.10;100.00
9774;BME280;4926;42.670;23.316;2022-07-29T05:59:30;94712.31;;;22.10;100.00
9774;BME280;4926;42.670;23.316;2022-07-29T06:01:57;94712.31;;;22.10;100.00
9774;BME280;4926;42.670;23.316;2022-07-29T06:04:25;94714.59;;;22.27;100.00
9774;BME280;4926;42.670;23.316;2022-07-29T06:06:52;94722.34;;;22.44;100.00
9774;BME280;4926;42.670;23.316;2022-07-29T06:09:20;94714.28;;;22.67;95.71
9774;BME280;4926;42.670;23.316;2022-07-29T06:11:48;94710.63;;;22.78;95.65
9774;BME280;4926;42.670;23.316;2022-07-29T06:14:15;94714.75;;;22.91;90.97
9774;BME280;4926;42.670;23.316;2022-07-29T06:16:41;94713.84;;;23.06;88.47
9774;BME280;4926;42.670;23.316;2022-07-29T06:19:08;94718.28;;;23.14;86.89
9774;BME280;4926;42.670;23.316;2022-07-29T06:21:41;94718.31;;;23.18;87.63
9774;BME280;4926;42.670;23.316;2022-07-29T06:24:10;94718.09;;;23.27;87.09
9774;BME280;4926;42.670;23.316;2022-07-29T06:26:39;94715.66;;;23.41;86.42
9774;BME280;4926;42.670;23.316;2022-07-29T06:29:06;94712.19;;;23.44;85.20
9774;BME280;4926;42.670;23.316;2022-07-29T06:31:33;94726.00;;;23.58;83.78
9774;BME280;4926;42.670;23.316;2022-07-29T06:34:00;94724.38;;;23.53;84.46
9774;BME280;4926;42.670;23.316;2022-07-29T06:36:27;94719.94;;;23.68;83.00
9774;BME280;4926;42.670;23.316;2022-07-29T06:38:56;94718.16;;;23.53;82.88
9774;BME280;4926;42.670;23.316;2022-07-29T06:41:22;94710.31;;;23.48;83.31
9774;BME280;4926;42.670;23.316;2022-07-29T06:43:53;94710.31;;;23.48;82.83
9774;BME280;4926;42.670;23.316;2022-07-29T06:46:21;94706.78;;;23.70;82.89
9774;BME280;4926;42.670;23.316;2022-07-29T06:48:48;94707.38;;;23.82;81.38
9774;BME280;4926;42.670;23.316;2022-07-29T06:51:15;94712.41;;;24.06;81.01
9774;BME280;4926;42.670;23.316;2022-07-29T06:53:44;94709.13;;;24.23;80.78
9774;BME280;4926;42.670;23.316;2022-07-29T06:56:15;94703.06;;;24.37;79.37
9774;BME280;4926;42.670;23.316;2022-07-29T06:58:43;94706.38;;;24.53;78.75
9774;BME280;4926;42.670;23.316;2022-07-29T07:01:10;94708.13;;;24.68;78.59
9774;BME280;4926;42.670;23.316;2022-07-29T07:03:37;94708.47;;;24.96;77.15
9774;BME280;4926;42.670;23.316;2022-07-29T07:06:05;94706.47;;;24.93;75.01
9774;BME280;4926;42.670;23.316;2022-07-29T07:08:31;94704.84;;;24.85;76.33
9774;BME280;4926;42.670;23.316;2022-07-29T07:10:58;94699.25;;;25.08;76.44
9774;BME280;4926;42.670;23.316;2022-07-29T07:13:26;94704.44;;;25.23;75.40
9774;BME280;4926;42.670;23.316;2022-07-29T07:15:59;94699.09;;;25.34;74.56
9774;BME280;4926;42.670;23.316;2022-07-29T07:18:28;94701.69;;;25.60;73.72
9774;BME280;4926;42.670;23.316;2022-07-29T07:20:55;94707.75;;;25.90;72.34
9774;BME280;4926;42.670;23.316;2022-07-29T07:23:22;94701.84;;;25.81;69.56
9774;BME280;4926;42.670;23.316;2022-07-29T07:25:50;94699.09;;;25.78;69.93
9774;BME280;4926;42.670;23.316;2022-07-29T07:28:16;94703.50;;;25.96;70.08
9774;BME280;4926;42.670;23.316;2022-07-29T07:30:45;94700.13;;;26.13;68.29
9774;BME280;4926;42.670;23.316;2022-07-29T07:33:13;94688.59;;;26.48;67.17
9774;BME280;4926;42.670;23.316;2022-07-29T07:35:43;94692.56;;;26.65;66.42
9774;BME280;4926;42.670;23.316;2022-07-29T07:38:10;94689.16;;;26.85;64.89
9774;BME280;4926;42.670;23.316;2022-07-29T07:40:37;94683.38;;;27.15;64.92
9774;BME280;4926;42.670;23.316;2022-07-29T07:43:04;94682.63;;;27.39;62.31
9774;BME280;4926;42.670;23.316;2022-07-29T07:45:31;94669.34;;;27.37;61.33
9774;BME280;4926;42.670;23.316;2022-07-29T07:48:05;94684.19;;;27.61;60.46
9774;BME280;4926;42.670;23.316;2022-07-29T07:50:35;94688.09;;;27.71;59.60
9774;BME280;4926;42.670;23.316;2022-07-29T07:53:03;94677.16;;;27.99;59.79
9774;BME280;4926;42.670;23.316;2022-07-29T07:55:29;94672.44;;;28.03;58.34
9774;BME280;4926;42.670;23.316;2022-07-29T07:57:56;94667.28;;;28.33;56.30
9774;BME280;4926;42.670;23.316;2022-07-29T08:00:23;94669.97;;;28.47;56.38
9774;BME280;4926;42.670;23.316;2022-07-29T08:02:50;94671.56;;;28.41;57.63
9774;BME280;4926;42.670;23.316;2022-07-29T08:05:18;94665.19;;;28.72;55.79
9774;BME280;4926;42.670;23.316;2022-07-29T08:07:45;94659.56;;;29.00;54.68
9774;BME280;4926;42.670;23.316;2022-07-29T08:10:16;94651.59;;;29.27;53.75
9774;BME280;4926;42.670;23.316;2022-07-29T08:13:04;94658.72;;;29.14;53.37
9774;BME280;4926;42.670;23.316;2022-07-29T08:15:31;94655.34;;;28.78;53.43
9774;BME280;4926;42.670;23.316;2022-07-29T08:17:58;94664.09;;;28.45;54.05
9774;BME280;4926;42.670;23.316;2022-07-29T08:20:30;94666.91;;;28.27;55.21
9774;BME280;4926;42.670;23.316;2022-07-29T08:22:59;94669.09;;;28.71;55.60
9774;BME280;4926;42.670;23.316;2022-07-29T08:25:25;94651.72;;;29.02;52.61
9774;BME280;4926;42.670;23.316;2022-07-29T08:27:53;94648.84;;;29.27;52.94
9774;BME280;4926;42.670;23.316;2022-07-29T08:30:20;94655.25;;;29.57;51.15
9774;BME280;4926;42.670;23.316;2022-07-29T08:32:47;94642.50;;;29.33;50.77
9774;BME280;4926;42.670;23.316;2022-07-29T08:35:15;94652.63;;;29.43;51.19
9774;BME280;4926;42.670;23.316;2022-07-29T08:37:44;94643.06;;;29.58;49.79
9774;BME280;4926;42.670;23.316;2022-07-29T08:40:11;94638.78;;;29.57;48.82
9774;BME280;4926;42.670;23.316;2022-07-29T08:42:39;94634.25;;;29.37;48.50
9774;BME280;4926;42.670;23.316;2022-07-29T08:45:07;94634.03;;;29.69;48.94
9774;BME280;4926;42.670;23.316;2022-07-29T08:47:34;94639.13;;;30.07;49.99
9774;BME280;4926;42.670;23.316;2022-07-29T08:50:04;94626.25;;;29.97;47.18
9774;BME280;4926;42.670;23.316;2022-07-29T08:52:36;94634.66;;;29.83;48.38
9774;BME280;4926;42.670;23.316;2022-07-29T08:55:05;94630.97;;;30.34;48.96
9774;BME280;4926;42.670;23.316;2022-07-29T08:57:35;94625.25;;;30.85;47.69
9774;BME280;4926;42.670;23.316;2022-07-29T09:00:05;94596.91;;;31.15;44.12
9774;BME280;4926;42.670;23.316;2022-07-29T09:02:35;94602.34;;;30.65;44.25
9774;BME280;4926;42.670;23.316;2022-07-29T09:05:06;94610.41;;;30.49;44.82
9774;BME280;4926;42.670;23.316;2022-07-29T09:07:36;94610.78;;;30.14;46.30
9774;BME280;4926;42.670;23.316;2022-07-29T09:10:07;94615.19;;;29.71;46.72
9774;BME280;4926;42.670;23.316;2022-07-29T09:12:34;94619.31;;;29.41;47.46
9774;BME280;4926;42.670;23.316;2022-07-29T09:15:02;94626.78;;;29.37;48.44
9774;BME280;4926;42.670;23.316;2022-07-29T09:17:49;94623.41;;;29.23;47.81
9774;BME280;4926;42.670;23.316;2022-07-29T09:20:19;94621.03;;;29.25;48.19
9774;BME280;4926;42.670;23.316;2022-07-29T09:22:47;94624.81;;;29.38;47.83
9774;BME280;4926;42.670;23.316;2022-07-29T09:25:31;94619.19;;;30.00;47.09
9774;BME280;4926;42.670;23.316;2022-07-29T09:28:05;94608.22;;;30.63;45.89
9774;BME280;4926;42.670;23.316;2022-07-29T09:30:33;94599.00;;;31.07;45.22
9774;BME280;4926;42.670;23.316;2022-07-29T09:33:02;94589.66;;;31.01;43.08
9774;BME280;4926;42.670;23.316;2022-07-29T09:35:30;94586.81;;;31.08;43.23
9774;BME280;4926;42.670;23.316;2022-07-29T09:38:10;94587.22;;;31.33;43.31
9774;BME280;4926;42.670;23.316;2022-07-29T09:40:38;94576.47;;;31.85;41.54
9774;BME280;4926;42.670;23.316;2022-07-29T09:43:12;94575.97;;;32.33;41.99
9774;BME280;4926;42.670;23.316;2022-07-29T09:45:41;94549.84;;;32.41;41.56
9774;BME280;4926;42.670;23.316;2022-07-29T09:48:17;94567.31;;;32.70;40.98
9774;BME280;4926;42.670;23.316;2022-07-29T09:50:45;94562.66;;;32.67;40.32
9774;BME280;4926;42.670;23.316;2022-07-29T09:53:30;94563.53;;;32.25;40.97
9774;BME280;4926;42.670;23.316;2022-07-29T09:55:59;94576.06;;;31.87;41.68
9774;BME280;4926;42.670;23.316;2022-07-29T09:58:28;94571.84;;;31.59;42.34
9774;BME280;4926;42.670;23.316;2022-07-29T10:00:56;94565.44;;;31.89;41.70
9774;BME280;4926;42.670;23.316;2022-07-29T10:03:23;94566.41;;;32.37;41.41
9774;BME280;4926;42.670;23.316;2022-07-29T10:06:07;94556.44;;;32.99;40.74
9774;BME280;4926;42.670;23.316;2022-07-29T10:08:34;94547.22;;;33.37;40.18
9774;BME280;4926;42.670;23.316;2022-07-29T10:11:20;94531.88;;;33.36;39.39
9774;BME280;4926;42.670;23.316;2022-07-29T10:13:48;94539.31;;;33.39;40.12
9774;BME280;4926;42.670;23.316;2022-07-29T10:16:16;94522.91;;;33.32;38.78
9774;BME280;4926;42.670;23.316;2022-07-29T10:18:43;94526.19;;;32.95;39.43
9774;BME280;4926;42.670;23.316;2022-07-29T10:21:12;94524.63;;;33.10;41.01
9774;BME280;4926;42.670;23.316;2022-07-29T10:23:39;94533.78;;;33.23;41.76
9774;BME280;4926;42.670;23.316;2022-07-29T10:26:07;94526.78;;;33.35;39.85
9774;BME280;4926;42.670;23.316;2022-07-29T10:28:37;94519.19;;;33.23;39.85
9774;BME280;4926;42.670;23.316;2022-07-29T10:31:05;94505.66;;;32.80;39.54
9774;BME280;4926;42.670;23.316;2022-07-29T10:33:50;94514.09;;;32.89;40.55
9774;BME280;4926;42.670;23.316;2022-07-29T10:36:30;94516.78;;;33.41;39.40
9774;BME280;4926;42.670;23.316;2022-07-29T10:39:05;94505.06;;;33.21;38.28
9774;BME280;4926;42.670;23.316;2022-07-29T10:41:52;94509.59;;;32.79;40.30
9774;BME280;4926;42.670;23.316;2022-07-29T10:44:25;94498.56;;;32.79;38.85
9774;BME280;4926;42.670;23.316;2022-07-29T10:46:53;94502.19;;;33.24;38.96
9774;BME280;4926;42.670;23.316;2022-07-29T10:49:20;94502.13;;;33.28;39.69
9774;BME280;4926;42.670;23.316;2022-07-29T10:52:00;94493.53;;;33.70;39.27
9774;BME280;4926;42.670;23.316;2022-07-29T10:54:41;94487.72;;;34.10;38.84
9774;BME280;4926;42.670;23.316;2022-07-29T10:57:18;94475.03;;;34.25;37.42
9774;BME280;4926;42.670;23.316;2022-07-29T10:59:48;94465.06;;;33.57;37.41
9774;BME280;4926;42.670;23.316;2022-07-29T11:02:41;94475.34;;;33.85;37.95
9774;BME280;4926;42.670;23.316;2022-07-29T11:05:11;94468.97;;;34.42;37.49
9774;BME280;4926;42.670;23.316;2022-07-29T11:10:27;94457.28;;;34.88;37.34
9774;BME280;4926;42.670;23.316;2022-07-29T11:12:54;94455.94;;;34.68;36.35
9774;BME280;4926;42.670;23.316;2022-07-29T11:15:25;94455.09;;;34.05;36.45
9774;BME280;4926;42.670;23.316;2022-07-29T11:18:08;94448.13;;;34.00;37.13
9774;BME280;4926;42.670;23.316;2022-07-29T11:20:40;94455.19;;;34.55;36.87
9774;BME280;4926;42.670;23.316;2022-07-29T11:23:21;94451.19;;;34.31;36.17
9774;BME280;4926;42.670;23.316;2022-07-29T11:26:18;94439.91;;;34.38;35.86
9774;BME280;4926;42.670;23.316;2022-07-29T11:28:52;94432.06;;;34.74;36.20
9774;BME280;4926;42.670;23.316;2022-07-29T11:31:35;94440.34;;;34.49;36.47
9774;BME280;4926;42.670;23.316;2022-07-29T11:34:23;94425.41;;;34.71;36.07
9774;BME280;4926;42.670;23.316;2022-07-29T11:40:13;94436.69;;;34.77;36.40
9774;BME280;4926;42.670;23.316;2022-07-29T11:42:48;94439.69;;;34.57;36.62
9774;BME280;4926;42.670;23.316;2022-07-29T11:45:17;94425.53;;;34.68;36.39
9774;BME280;4926;42.670;23.316;2022-07-29T11:47:50;94421.81;;;35.21;35.39
9774;BME280;4926;42.670;23.316;2022-07-29T11:50:27;94413.78;;;35.36;35.59
9774;BME280;4926;42.670;23.316;2022-07-29T11:52:55;94418.78;;;35.28;35.77
9774;BME280;4926;42.670;23.316;2022-07-29T11:55:23;94424.16;;;35.10;35.15
9774;BME280;4926;42.670;23.316;2022-07-29T11:57:53;94419.81;;;35.22;35.24
9774;BME280;4926;42.670;23.316;2022-07-29T12:00:25;94418.09;;;34.90;35.70
9774;BME280;4926;42.670;23.316;2022-07-29T12:02:56;94417.75;;;34.88;35.06
9774;BME280;4926;42.670;23.316;2022-07-29T12:05:35;94418.09;;;34.90;35.99
9774;BME280;4926;42.670;23.316;2022-07-29T12:08:07;94405.19;;;34.62;35.10
9774;BME280;4926;42.670;23.316;2022-07-29T12:10:37;94411.13;;;34.23;35.37
9774;BME280;4926;42.670;23.316;2022-07-29T12:13:04;94417.97;;;34.06;35.03
9774;BME280;4926;42.670;23.316;2022-07-29T12:15:34;94417.31;;;34.14;35.97
9774;BME280;4926;42.670;23.316;2022-07-29T12:18:12;94416.88;;;34.41;36.12
9774;BME280;4926;42.670;23.316;2022-07-29T12:20:39;94416.34;;;34.46;35.35
9774;BME280;4926;42.670;23.316;2022-07-29T12:23:07;94411.56;;;34.09;34.57
9774;BME280;4926;42.670;23.316;2022-07-29T12:25:38;94418.75;;;34.19;35.48
9774;BME280;4926;42.670;23.316;2022-07-29T12:28:07;94421.28;;;34.26;35.42
9774;BME280;4926;42.670;23.316;2022-07-29T12:30:44;94416.44;;;34.80;35.39
9774;BME280;4926;42.670;23.316;2022-07-29T12:33:18;94400.88;;;35.20;34.52
9774;BME280;4926;42.670;23.316;2022-07-29T12:35:49;94393.31;;;35.33;34.40
9774;BME280;4926;42.670;23.316;2022-07-29T12:38:17;94395.88;;;35.28;34.71
9774;BME280;4926;42.670;23.316;2022-07-29T12:40:45;94393.88;;;35.28;34.81
9774;BME280;4926;42.670;23.316;2022-07-29T12:43:14;94391.09;;;35.28;34.40
9774;BME280;4926;42.670;23.316;2022-07-29T12:45:43;94391.19;;;35.03;34.81
9774;BME280;4926;42.670;23.316;2022-07-29T12:48:10;94393.19;;;34.90;34.18
9774;BME280;4926;42.670;23.316;2022-07-29T12:50:52;94392.75;;;34.92;34.57
9774;BME280;4926;42.670;23.316;2022-07-29T12:53:19;94396.53;;;34.35;35.37
9774;BME280;4926;42.670;23.316;2022-07-29T12:55:47;94374.88;;;34.58;35.11
9774;BME280;4926;42.670;23.316;2022-07-29T12:58:29;94376.38;;;34.97;34.68
9774;BME280;4926;42.670;23.316;2022-07-29T13:01:07;94372.53;;;35.50;33.71
9774;BME280;4926;42.670;23.316;2022-07-29T13:03:45;94368.56;;;35.51;33.43
9774;BME280;4926;42.670;23.316;2022-07-29T13:06:35;94356.31;;;35.27;32.73
9774;BME280;4926;42.670;23.316;2022-07-29T13:09:06;94352.91;;;35.23;33.32
9774;BME280;4926;42.670;23.316;2022-07-29T13:11:40;94351.56;;;35.71;33.48
9774;BME280;4926;42.670;23.316;2022-07-29T13:14:09;94350.38;;;35.94;32.77
9774;BME280;4926;42.670;23.316;2022-07-29T13:16:37;94349.84;;;36.17;32.83
9774;BME280;4926;42.670;23.316;2022-07-29T13:19:33;94342.94;;;35.90;32.98
9774;BME280;4926;42.670;23.316;2022-07-29T13:22:01;94353.28;;;35.47;33.62
9774;BME280;4926;42.670;23.316;2022-07-29T13:24:28;94344.00;;;35.62;32.75
9774;BME280;4926;42.670;23.316;2022-07-29T13:26:58;94337.56;;;35.65;33.23
9774;BME280;4926;42.670;23.316;2022-07-29T13:29:25;94335.97;;;35.86;32.74